sensor_id;sensor_type;location;lat;lon;timestamp;P1;durP1;ratioP1;P2;durP2;ratioP2
43146;SDS011;28752;48.266;7.402;2023-06-10T00:02:09;6.38;;;3.08;;
43146;SDS011;28752;48.266;7.402;2023-06-10T00:04:35;5.65;;;3.17;;
43146;SDS011;28752;48.266;7.402;2023-06-10T00:09:28;6.18;;;3.17;;
43146;SDS011;28752;48.266;7.402;2023-06-10T00:11:54;6.18;;;3.40;;
43146;SDS011;28752;48.266;7.402;2023-06-10T00:14:19;5.70;;;2.80;;
43146;SDS011;28752;48.266;7.402;2023-06-10T00:16:45;4.53;;;3.00;;
43146;SDS011;28752;48.266;7.402;2023-06-10T00:19:10;5.10;;;2.90;;
43146;SDS011;28752;48.266;7.402;2023-06-10T00:21:38;4.70;;;2.63;;
43146;SDS011;28752;48.266;7.402;2023-06-10T00:24:05;5.22;;;3.10;;
43146;SDS011;28752;48.266;7.402;2023-06-10T00:26:32;5.90;;;3.33;;
43146;SDS011;28752;48.266;7.402;2023-06-10T00:31:23;4.85;;;3.10;;
43146;SDS011;28752;48.266;7.402;2023-06-10T00:33:51;5.13;;;3.28;;
43146;SDS011;28752;48.266;7.402;2023-06-10T00:36:16;4.95;;;3.17;;
43146;SDS011;28752;48.266;7.402;2023-06-10T00:38:42;4.83;;;2.97;;
43146;SDS011;28752;48.266;7.402;2023-06-10T00:41:07;5.17;;;3.10;;
43146;SDS011;28752;48.266;7.402;2023-06-10T00:43:32;4.95;;;3.35;;
43146;SDS011;28752;48.266;7.402;2023-06-10T00:45:58;5.63;;;3.65;;
43146;SDS011;28752;48.266;7.402;2023-06-10T00:50:50;5.43;;;3.40;;
43146;SDS011;28752;48.266;7.402;2023-06-10T00:53:15;5.85;;;3.53;;
43146;SDS011;28752;48.266;7.402;2023-06-10T00:55:41;12.82;;;3.28;;
43146;SDS011;28752;48.266;7.402;2023-06-10T00:58:07;4.97;;;3.22;;
43146;SDS011;28752;48.266;7.402;2023-06-10T01:00:33;6.40;;;3.15;;
43146;SDS011;28752;48.266;7.402;2023-06-10T01:02:58;4.43;;;3.00;;
43146;SDS011;28752;48.266;7.402;2023-06-10T01:05:24;6.93;;;3.63;;
43146;SDS011;28752;48.266;7.402;2023-06-10T01:10:25;5.80;;;3.15;;
43146;SDS011;28752;48.266;7.402;2023-06-10T01:13:05;6.00;;;3.60;;
43146;SDS011;28752;48.266;7.402;2023-06-10T01:15:33;5.10;;;3.08;;
43146;SDS011;28752;48.266;7.402;2023-06-10T01:18:03;5.40;;;3.47;;
43146;SDS011;28752;48.266;7.402;2023-06-10T01:20:33;5.97;;;3.53;;
43146;SDS011;28752;48.266;7.402;2023-06-10T01:25:26;7.60;;;3.72;;
43146;SDS011;28752;48.266;7.402;2023-06-10T01:30:42;6.60;;;3.50;;
43146;SDS011;28752;48.266;7.402;2023-06-10T01:33:14;5.88;;;3.42;;
43146;SDS011;28752;48.266;7.402;2023-06-10T01:35:43;5.63;;;3.63;;
43146;SDS011;28752;48.266;7.402;2023-06-10T01:38:10;5.38;;;3.67;;
43146;SDS011;28752;48.266;7.402;2023-06-10T01:40:37;5.85;;;3.45;;
43146;SDS011;28752;48.266;7.402;2023-06-10T01:43:04;6.75;;;3.80;;
43146;SDS011;28752;48.266;7.402;2023-06-10T01:45:29;5.28;;;3.20;;
43146;SDS011;28752;48.266;7.402;2023-06-10T01:47:55;5.13;;;3.47;;
43146;SDS011;28752;48.266;7.402;2023-06-10T01:50:20;6.33;;;3.80;;
43146;SDS011;28752;48.266;7.402;2023-06-10T01:52:45;5.80;;;3.50;;
43146;SDS011;28752;48.266;7.402;2023-06-10T01:55:11;5.68;;;3.40;;
43146;SDS011;28752;48.266;7.402;2023-06-10T01:57:37;5.83;;;3.60;;
43146;SDS011;28752;48.266;7.402;2023-06-10T02:00:02;6.90;;;3.77;;
43146;SDS011;28752;48.266;7.402;2023-06-10T02:02:28;5.15;;;3.40;;
43146;SDS011;28752;48.266;7.402;2023-06-10T02:04:53;5.60;;;3.70;;
43146;SDS011;28752;48.266;7.402;2023-06-10T02:07:19;5.63;;;3.53;;
43146;SDS011;28752;48.266;7.402;2023-06-10T02:09:44;6.53;;;3.47;;
43146;SDS011;28752;48.266;7.402;2023-06-10T02:12:09;6.80;;;4.37;;
43146;SDS011;28752;48.266;7.402;2023-06-10T02:14:35;6.38;;;3.88;;
43146;SDS011;28752;48.266;7.402;2023-06-10T02:17:01;6.03;;;3.20;;
43146;SDS011;28752;48.266;7.402;2023-06-10T02:19:26;7.07;;;3.83;;
43146;SDS011;28752;48.266;7.402;2023-06-10T02:21:52;6.13;;;3.80;;
43146;SDS011;28752;48.266;7.402;2023-06-10T02:24:17;7.07;;;3.43;;
43146;SDS011;28752;48.266;7.402;2023-06-10T02:26:43;4.93;;;3.40;;
43146;SDS011;28752;48.266;7.402;2023-06-10T02:29:08;5.57;;;3.70;;
43146;SDS011;28752;48.266;7.402;2023-06-10T02:31:34;5.88;;;3.67;;
43146;SDS011;28752;48.266;7.402;2023-06-10T02:34:00;4.88;;;2.90;;
43146;SDS011;28752;48.266;7.402;2023-06-10T02:38:52;5.80;;;3.60;;
43146;SDS011;28752;48.266;7.402;2023-06-10T02:41:18;5.90;;;3.85;;
43146;SDS011;28752;48.266;7.402;2023-06-10T02:43:43;5.07;;;3.20;;
43146;SDS011;28752;48.266;7.402;2023-06-10T02:46:09;6.77;;;4.00;;
43146;SDS011;28752;48.266;7.402;2023-06-10T02:48:40;4.57;;;3.20;;
43146;SDS011;28752;48.266;7.402;2023-06-10T02:51:06;7.72;;;3.95;;
43146;SDS011;28752;48.266;7.402;2023-06-10T02:53:31;6.50;;;3.60;;
43146;SDS011;28752;48.266;7.402;2023-06-10T02:55:57;5.80;;;3.50;;
43146;SDS011;28752;48.266;7.402;2023-06-10T02:58:22;5.17;;;3.30;;
43146;SDS011;28752;48.266;7.402;2023-06-10T03:00:47;5.20;;;3.43;;
43146;SDS011;28752;48.266;7.402;2023-06-10T03:03:13;6.28;;;3.63;;
43146;SDS011;28752;48.266;7.402;2023-06-10T03:05:39;7.53;;;3.75;;
43146;SDS011;28752;48.266;7.402;2023-06-10T03:08:05;5.40;;;3.50;;
43146;SDS011;28752;48.266;7.402;2023-06-10T03:10:30;6.30;;;3.67;;
43146;SDS011;28752;48.266;7.402;2023-06-10T03:12:58;5.57;;;3.50;;
43146;SDS011;28752;48.266;7.402;2023-06-10T03:15:23;5.95;;;3.88;;
43146;SDS011;28752;48.266;7.402;2023-06-10T03:17:49;5.40;;;3.53;;
43146;SDS011;28752;48.266;7.402;2023-06-10T03:20:15;7.72;;;4.05;;
43146;SDS011;28752;48.266;7.402;2023-06-10T03:22:41;6.50;;;3.67;;
43146;SDS011;28752;48.266;7.402;2023-06-10T03:25:07;6.30;;;3.00;;
43146;SDS011;28752;48.266;7.402;2023-06-10T03:27:38;6.47;;;4.03;;
43146;SDS011;28752;48.266;7.402;2023-06-10T03:30:04;5.53;;;3.53;;
43146;SDS011;28752;48.266;7.402;2023-06-10T03:32:30;5.65;;;3.53;;
43146;SDS011;28752;48.266;7.402;2023-06-10T03:34:55;6.47;;;3.43;;
43146;SDS011;28752;48.266;7.402;2023-06-10T03:37:22;5.95;;;3.60;;
43146;SDS011;28752;48.266;7.402;2023-06-10T03:39:47;5.63;;;3.72;;
43146;SDS011;28752;48.266;7.402;2023-06-10T03:42:13;5.27;;;3.43;;
43146;SDS011;28752;48.266;7.402;2023-06-10T03:44:38;5.90;;;4.23;;
43146;SDS011;28752;48.266;7.402;2023-06-10T03:47:03;6.83;;;3.53;;
43146;SDS011;28752;48.266;7.402;2023-06-10T03:49:29;6.40;;;3.47;;
43146;SDS011;28752;48.266;7.402;2023-06-10T03:51:54;5.60;;;3.60;;
43146;SDS011;28752;48.266;7.402;2023-06-10T03:54:20;6.80;;;4.38;;
43146;SDS011;28752;48.266;7.402;2023-06-10T03:56:45;6.30;;;3.63;;
43146;SDS011;28752;48.266;7.402;2023-06-10T03:59:13;6.82;;;4.10;;
43146;SDS011;28752;48.266;7.402;2023-06-10T04:01:38;5.38;;;3.30;;
43146;SDS011;28752;48.266;7.402;2023-06-10T04:04:06;6.57;;;4.03;;
43146;SDS011;28752;48.266;7.402;2023-06-10T04:06:31;7.05;;;3.78;;
43146;SDS011;28752;48.266;7.402;2023-06-10T04:08:56;6.00;;;3.33;;
43146;SDS011;28752;48.266;7.402;2023-06-10T04:11:23;7.37;;;4.27;;
43146;SDS011;28752;48.266;7.402;2023-06-10T04:13:49;5.20;;;3.50;;
43146;SDS011;28752;48.266;7.402;2023-06-10T04:16:14;6.68;;;3.58;;
43146;SDS011;28752;48.266;7.402;2023-06-10T04:18:41;5.40;;;3.60;;
43146;SDS011;28752;48.266;7.402;2023-06-10T04:21:07;5.32;;;3.33;;
43146;SDS011;28752;48.266;7.402;2023-06-10T04:25:59;6.78;;;3.95;;
43146;SDS011;28752;48.266;7.402;2023-06-10T04:28:25;6.73;;;3.17;;
43146;SDS011;28752;48.266;7.402;2023-06-10T04:30:50;6.47;;;4.00;;
43146;SDS011;28752;48.266;7.402;2023-06-10T04:33:15;6.80;;;3.77;;
43146;SDS011;28752;48.266;7.402;2023-06-10T04:35:41;4.93;;;3.40;;
43146;SDS011;28752;48.266;7.402;2023-06-10T04:38:07;4.97;;;3.50;;
43146;SDS011;28752;48.266;7.402;2023-06-10T04:40:32;5.45;;;3.35;;
43146;SDS011;28752;48.266;7.402;2023-06-10T04:42:58;4.72;;;2.92;;
43146;SDS011;28752;48.266;7.402;2023-06-10T04:45:23;5.13;;;3.42;;
43146;SDS011;28752;48.266;7.402;2023-06-10T04:47:49;5.40;;;3.30;;
43146;SDS011;28752;48.266;7.402;2023-06-10T04:50:14;5.47;;;3.60;;
43146;SDS011;28752;48.266;7.402;2023-06-10T04:52:40;5.03;;;3.38;;
43146;SDS011;28752;48.266;7.402;2023-06-10T04:55:06;6.90;;;4.18;;
43146;SDS011;28752;48.266;7.402;2023-06-10T04:57:32;5.22;;;3.45;;
43146;SDS011;28752;48.266;7.402;2023-06-10T04:59:57;5.27;;;3.50;;
43146;SDS011;28752;48.266;7.402;2023-06-10T05:02:23;5.83;;;3.70;;
43146;SDS011;28752;48.266;7.402;2023-06-10T05:04:48;6.97;;;3.67;;
43146;SDS011;28752;48.266;7.402;2023-06-10T05:07:13;5.70;;;3.47;;
43146;SDS011;28752;48.266;7.402;2023-06-10T05:09:39;6.43;;;3.90;;
43146;SDS011;28752;48.266;7.402;2023-06-10T05:12:04;6.60;;;3.83;;
43146;SDS011;28752;48.266;7.402;2023-06-10T05:14:31;7.45;;;4.18;;
43146;SDS011;28752;48.266;7.402;2023-06-10T05:16:56;5.93;;;3.85;;
43146;SDS011;28752;48.266;7.402;2023-06-10T05:19:22;5.63;;;3.83;;
43146;SDS011;28752;48.266;7.402;2023-06-10T05:21:48;6.22;;;4.25;;
43146;SDS011;28752;48.266;7.402;2023-06-10T05:24:13;6.00;;;3.70;;
43146;SDS011;28752;48.266;7.402;2023-06-10T05:26:38;6.17;;;3.80;;
43146;SDS011;28752;48.266;7.402;2023-06-10T05:29:04;5.93;;;3.67;;
43146;SDS011;28752;48.266;7.402;2023-06-10T05:31:30;6.57;;;4.22;;
43146;SDS011;28752;48.266;7.402;2023-06-10T05:36:21;5.70;;;3.60;;
43146;SDS011;28752;48.266;7.402;2023-06-10T05:38:47;6.00;;;3.78;;
43146;SDS011;28752;48.266;7.402;2023-06-10T05:41:12;5.82;;;4.00;;
43146;SDS011;28752;48.266;7.402;2023-06-10T05:43:37;6.17;;;4.30;;
43146;SDS011;28752;48.266;7.402;2023-06-10T05:46:03;6.15;;;3.97;;
43146;SDS011;28752;48.266;7.402;2023-06-10T05:48:28;6.80;;;4.60;;
43146;SDS011;28752;48.266;7.402;2023-06-10T05:50:53;6.50;;;4.10;;
43146;SDS011;28752;48.266;7.402;2023-06-10T05:53:19;5.82;;;4.05;;
43146;SDS011;28752;48.266;7.402;2023-06-10T05:55:44;7.32;;;4.28;;
43146;SDS011;28752;48.266;7.402;2023-06-10T06:00:37;6.13;;;4.10;;
43146;SDS011;28752;48.266;7.402;2023-06-10T06:03:03;5.97;;;3.67;;
43146;SDS011;28752;48.266;7.402;2023-06-10T06:05:28;5.68;;;4.00;;
43146;SDS011;28752;48.266;7.402;2023-06-10T06:07:59;6.20;;;3.90;;
43146;SDS011;28752;48.266;7.402;2023-06-10T06:10:26;5.60;;;4.10;;
43146;SDS011;28752;48.266;7.402;2023-06-10T06:12:51;6.10;;;4.28;;
43146;SDS011;28752;48.266;7.402;2023-06-10T06:15:16;5.30;;;3.72;;
43146;SDS011;28752;48.266;7.402;2023-06-10T06:17:41;4.57;;;3.30;;
43146;SDS011;28752;48.266;7.402;2023-06-10T06:20:07;4.93;;;3.45;;
43146;SDS011;28752;48.266;7.402;2023-06-10T06:22:33;5.65;;;3.50;;
43146;SDS011;28752;48.266;7.402;2023-06-10T06:24:58;5.35;;;3.70;;
43146;SDS011;28752;48.266;7.402;2023-06-10T06:27:23;6.55;;;4.30;;
43146;SDS011;28752;48.266;7.402;2023-06-10T06:29:49;7.68;;;4.55;;
43146;SDS011;28752;48.266;7.402;2023-06-10T06:32:15;6.25;;;4.13;;
43146;SDS011;28752;48.266;7.402;2023-06-10T06:34:41;5.88;;;3.83;;
43146;SDS011;28752;48.266;7.402;2023-06-10T06:37:06;6.28;;;4.05;;
43146;SDS011;28752;48.266;7.402;2023-06-10T06:39:31;6.00;;;4.07;;
43146;SDS011;28752;48.266;7.402;2023-06-10T06:41:57;5.63;;;4.38;;
43146;SDS011;28752;48.266;7.402;2023-06-10T06:44:22;6.53;;;4.28;;
43146;SDS011;28752;48.266;7.402;2023-06-10T06:46:47;6.43;;;4.50;;
43146;SDS011;28752;48.266;7.402;2023-06-10T06:49:14;6.35;;;4.45;;
43146;SDS011;28752;48.266;7.402;2023-06-10T06:51:39;6.05;;;4.53;;
43146;SDS011;28752;48.266;7.402;2023-06-10T06:54:04;5.43;;;4.20;;
43146;SDS011;28752;48.266;7.402;2023-06-10T06:56:30;5.50;;;4.25;;
43146;SDS011;28752;48.266;7.402;2023-06-10T06:58:56;6.10;;;3.90;;
43146;SDS011;28752;48.266;7.402;2023-06-10T07:01:21;7.60;;;4.28;;
43146;SDS011;28752;48.266;7.402;2023-06-10T07:03:47;8.23;;;4.97;;
43146;SDS011;28752;48.266;7.402;2023-06-10T07:06:12;5.60;;;4.32;;
43146;SDS011;28752;48.266;7.402;2023-06-10T07:08:38;5.80;;;4.38;;
43146;SDS011;28752;48.266;7.402;2023-06-10T07:11:03;6.00;;;4.30;;
43146;SDS011;28752;48.266;7.402;2023-06-10T07:13:29;6.60;;;3.97;;
43146;SDS011;28752;48.266;7.402;2023-06-10T07:15:54;6.22;;;4.38;;
43146;SDS011;28752;48.266;7.402;2023-06-10T07:18:19;6.63;;;4.22;;
43146;SDS011;28752;48.266;7.402;2023-06-10T07:20:45;6.18;;;4.25;;
43146;SDS011;28752;48.266;7.402;2023-06-10T07:23:10;7.13;;;4.63;;
43146;SDS011;28752;48.266;7.402;2023-06-10T07:25:35;6.97;;;4.55;;
43146;SDS011;28752;48.266;7.402;2023-06-10T07:28:01;5.45;;;3.97;;
43146;SDS011;28752;48.266;7.402;2023-06-10T07:30:26;7.00;;;4.20;;
43146;SDS011;28752;48.266;7.402;2023-06-10T07:32:51;6.15;;;4.57;;
43146;SDS011;28752;48.266;7.402;2023-06-10T07:35:17;5.47;;;4.13;;
43146;SDS011;28752;48.266;7.402;2023-06-10T07:37:42;5.57;;;3.97;;
43146;SDS011;28752;48.266;7.402;2023-06-10T07:40:07;6.38;;;4.60;;
43146;SDS011;28752;48.266;7.402;2023-06-10T07:42:34;6.53;;;4.57;;
43146;SDS011;28752;48.266;7.402;2023-06-10T07:45:01;7.82;;;4.43;;
43146;SDS011;28752;48.266;7.402;2023-06-10T07:47:28;6.03;;;4.28;;
43146;SDS011;28752;48.266;7.402;2023-06-10T07:49:54;5.90;;;4.25;;
43146;SDS011;28752;48.266;7.402;2023-06-10T07:52:19;6.40;;;4.28;;
43146;SDS011;28752;48.266;7.402;2023-06-10T07:54:45;6.97;;;4.20;;
43146;SDS011;28752;48.266;7.402;2023-06-10T07:57:10;7.28;;;4.32;;
43146;SDS011;28752;48.266;7.402;2023-06-10T07:59:35;6.65;;;4.25;;
43146;SDS011;28752;48.266;7.402;2023-06-10T08:02:01;6.20;;;4.13;;
43146;SDS011;28752;48.266;7.402;2023-06-10T08:04:26;6.07;;;4.57;;
43146;SDS011;28752;48.266;7.402;2023-06-10T08:06:52;7.40;;;4.53;;
43146;SDS011;28752;48.266;7.402;2023-06-10T08:09:17;6.78;;;4.45;;
43146;SDS011;28752;48.266;7.402;2023-06-10T08:11:43;6.43;;;4.53;;
43146;SDS011;28752;48.266;7.402;2023-06-10T08:14:09;5.93;;;4.20;;
43146;SDS011;28752;48.266;7.402;2023-06-10T08:16:34;6.07;;;4.35;;
43146;SDS011;28752;48.266;7.402;2023-06-10T08:19:00;5.70;;;4.13;;
43146;SDS011;28752;48.266;7.402;2023-06-10T08:21:25;6.18;;;4.20;;
43146;SDS011;28752;48.266;7.402;2023-06-10T08:23:53;8.50;;;4.90;;
43146;SDS011;28752;48.266;7.402;2023-06-10T08:26:19;6.28;;;4.70;;
43146;SDS011;28752;48.266;7.402;2023-06-10T08:28:44;6.35;;;4.53;;
43146;SDS011;28752;48.266;7.402;2023-06-10T08:31:10;7.22;;;4.45;;
43146;SDS011;28752;48.266;7.402;2023-06-10T08:36:00;7.95;;;5.05;;
43146;SDS011;28752;48.266;7.402;2023-06-10T08:43:28;6.57;;;4.13;;
43146;SDS011;28752;48.266;7.402;2023-06-10T08:46:04;6.88;;;4.63;;
43146;SDS011;28752;48.266;7.402;2023-06-10T08:48:34;7.53;;;4.55;;
43146;SDS011;28752;48.266;7.402;2023-06-10T08:51:03;7.20;;;4.72;;
43146;SDS011;28752;48.266;7.402;2023-06-10T08:53:29;7.15;;;4.80;;
43146;SDS011;28752;48.266;7.402;2023-06-10T08:55:58;6.70;;;4.60;;
43146;SDS011;28752;48.266;7.402;2023-06-10T08:58:25;5.72;;;4.05;;
43146;SDS011;28752;48.266;7.402;2023-06-10T09:00:52;6.75;;;4.28;;
43146;SDS011;28752;48.266;7.402;2023-06-10T09:05:43;6.75;;;4.25;;
43146;SDS011;28752;48.266;7.402;2023-06-10T09:10:34;6.07;;;4.35;;
43146;SDS011;28752;48.266;7.402;2023-06-10T09:15:25;8.00;;;4.93;;
43146;SDS011;28752;48.266;7.402;2023-06-10T09:17:51;6.43;;;4.80;;
43146;SDS011;28752;48.266;7.402;2023-06-10T09:25:10;7.28;;;4.43;;
43146;SDS011;28752;48.266;7.402;2023-06-10T09:27:47;6.15;;;4.47;;
43146;SDS011;28752;48.266;7.402;2023-06-10T09:30:25;6.45;;;4.80;;
43146;SDS011;28752;48.266;7.402;2023-06-10T09:32:53;5.90;;;4.20;;
43146;SDS011;28752;48.266;7.402;2023-06-10T09:35:25;6.28;;;4.50;;
43146;SDS011;28752;48.266;7.402;2023-06-10T09:37:52;7.40;;;4.72;;
43146;SDS011;28752;48.266;7.402;2023-06-10T09:40:21;7.10;;;4.90;;
43146;SDS011;28752;48.266;7.402;2023-06-10T09:45:19;6.80;;;4.60;;
43146;SDS011;28752;48.266;7.402;2023-06-10T09:50:11;6.30;;;4.63;;
43146;SDS011;28752;48.266;7.402;2023-06-10T09:52:36;7.00;;;4.45;;
43146;SDS011;28752;48.266;7.402;2023-06-10T09:57:31;6.07;;;4.18;;
43146;SDS011;28752;48.266;7.402;2023-06-10T10:00:08;7.63;;;4.50;;
43146;SDS011;28752;48.266;7.402;2023-06-10T10:02:45;6.25;;;4.10;;
43146;SDS011;28752;48.266;7.402;2023-06-10T10:05:15;5.78;;;4.18;;
43146;SDS011;28752;48.266;7.402;2023-06-10T10:07:41;6.35;;;4.32;;
43146;SDS011;28752;48.266;7.402;2023-06-10T10:10:07;6.47;;;4.38;;
43146;SDS011;28752;48.266;7.402;2023-06-10T10:12:34;5.95;;;4.20;;
43146;SDS011;28752;48.266;7.402;2023-06-10T10:15:01;7.43;;;4.57;;
43146;SDS011;28752;48.266;7.402;2023-06-10T10:17:27;6.50;;;4.50;;
43146;SDS011;28752;48.266;7.402;2023-06-10T10:19:57;6.68;;;4.50;;
43146;SDS011;28752;48.266;7.402;2023-06-10T10:22:31;7.00;;;5.00;;
43146;SDS011;28752;48.266;7.402;2023-06-10T10:25:02;7.85;;;4.72;;
43146;SDS011;28752;48.266;7.402;2023-06-10T10:30:13;5.55;;;4.07;;
43146;SDS011;28752;48.266;7.402;2023-06-10T10:32:44;6.82;;;4.25;;
43146;SDS011;28752;48.266;7.402;2023-06-10T10:35:23;6.38;;;4.47;;
43146;SDS011;28752;48.266;7.402;2023-06-10T10:37:53;6.78;;;4.20;;
43146;SDS011;28752;48.266;7.402;2023-06-10T10:40:20;7.10;;;4.70;;
43146;SDS011;28752;48.266;7.402;2023-06-10T10:42:47;6.30;;;4.20;;
43146;SDS011;28752;48.266;7.402;2023-06-10T10:45:14;6.55;;;4.53;;
43146;SDS011;28752;48.266;7.402;2023-06-10T10:50:12;5.82;;;4.00;;
43146;SDS011;28752;48.266;7.402;2023-06-10T10:53:13;6.18;;;4.20;;
43146;SDS011;28752;48.266;7.402;2023-06-10T10:55:32;6.63;;;3.78;;
43146;SDS011;28752;48.266;7.402;2023-06-10T10:57:59;6.43;;;4.32;;
43146;SDS011;28752;48.266;7.402;2023-06-10T11:00:29;7.38;;;4.30;;
43146;SDS011;28752;48.266;7.402;2023-06-10T11:03:00;6.22;;;4.40;;
43146;SDS011;28752;48.266;7.402;2023-06-10T11:05:35;6.25;;;3.83;;
43146;SDS011;28752;48.266;7.402;2023-06-10T11:08:03;5.30;;;3.58;;
43146;SDS011;28752;48.266;7.402;2023-06-10T11:13:05;7.40;;;3.80;;
43146;SDS011;28752;48.266;7.402;2023-06-10T11:15:44;6.15;;;4.13;;
43146;SDS011;28752;48.266;7.402;2023-06-10T11:18:15;5.22;;;3.58;;
43146;SDS011;28752;48.266;7.402;2023-06-10T11:23:25;5.32;;;3.70;;
43146;SDS011;28752;48.266;7.402;2023-06-10T11:33:52;5.43;;;3.33;;
43146;SDS011;28752;48.266;7.402;2023-06-10T11:36:19;5.13;;;3.17;;
43146;SDS011;28752;48.266;7.402;2023-06-10T11:38:44;5.05;;;3.25;;
43146;SDS011;28752;48.266;7.402;2023-06-10T11:41:13;4.90;;;2.95;;
43146;SDS011;28752;48.266;7.402;2023-06-10T11:43:43;5.35;;;3.20;;
43146;SDS011;28752;48.266;7.402;2023-06-10T11:46:09;5.25;;;3.50;;
43146;SDS011;28752;48.266;7.402;2023-06-10T11:48:35;5.00;;;3.55;;
43146;SDS011;28752;48.266;7.402;2023-06-10T11:51:00;5.65;;;3.85;;
43146;SDS011;28752;48.266;7.402;2023-06-10T11:53:26;5.50;;;3.85;;
43146;SDS011;28752;48.266;7.402;2023-06-10T11:55:53;5.65;;;3.38;;
43146;SDS011;28752;48.266;7.402;2023-06-10T11:58:22;5.70;;;3.58;;
43146;SDS011;28752;48.266;7.402;2023-06-10T12:00:54;5.38;;;3.95;;
43146;SDS011;28752;48.266;7.402;2023-06-10T12:03:23;7.05;;;4.10;;
43146;SDS011;28752;48.266;7.402;2023-06-10T12:05:59;5.82;;;3.75;;
43146;SDS011;28752;48.266;7.402;2023-06-10T12:08:26;6.18;;;4.20;;
43146;SDS011;28752;48.266;7.402;2023-06-10T12:10:52;6.07;;;3.97;;
43146;SDS011;28752;48.266;7.402;2023-06-10T12:13:18;5.35;;;3.80;;
43146;SDS011;28752;48.266;7.402;2023-06-10T12:15:44;5.47;;;3.60;;
43146;SDS011;28752;48.266;7.402;2023-06-10T12:18:17;6.15;;;4.00;;
43146;SDS011;28752;48.266;7.402;2023-06-10T12:20:43;5.13;;;3.83;;
43146;SDS011;28752;48.266;7.402;2023-06-10T12:25:34;5.72;;;3.78;;
43146;SDS011;28752;48.266;7.402;2023-06-10T12:28:01;5.80;;;3.63;;
43146;SDS011;28752;48.266;7.402;2023-06-10T12:30:27;4.82;;;3.50;;
43146;SDS011;28752;48.266;7.402;2023-06-10T12:32:53;5.07;;;3.42;;
43146;SDS011;28752;48.266;7.402;2023-06-10T12:35:20;5.63;;;3.70;;
43146;SDS011;28752;48.266;7.402;2023-06-10T12:37:56;6.57;;;3.58;;
43146;SDS011;28752;48.266;7.402;2023-06-10T12:40:25;6.05;;;3.55;;
43146;SDS011;28752;48.266;7.402;2023-06-10T12:42:57;5.00;;;3.20;;
43146;SDS011;28752;48.266;7.402;2023-06-10T12:45:30;5.80;;;3.42;;
43146;SDS011;28752;48.266;7.402;2023-06-10T12:50:34;6.07;;;3.40;;
43146;SDS011;28752;48.266;7.402;2023-06-10T12:53:03;4.65;;;3.00;;
43146;SDS011;28752;48.266;7.402;2023-06-10T12:55:29;4.68;;;3.33;;
43146;SDS011;28752;48.266;7.402;2023-06-10T12:57:55;4.72;;;3.30;;
43146;SDS011;28752;48.266;7.402;2023-06-10T13:00:22;6.50;;;3.30;;
43146;SDS011;28752;48.266;7.402;2023-06-10T13:02:50;4.57;;;2.75;;
43146;SDS011;28752;48.266;7.402;2023-06-10T13:05:16;5.32;;;3.50;;
43146;SDS011;28752;48.266;7.402;2023-06-10T13:07:43;5.30;;;3.50;;
43146;SDS011;28752;48.266;7.402;2023-06-10T13:10:09;6.18;;;3.05;;
43146;SDS011;28752;48.266;7.402;2023-06-10T13:12:35;7.53;;;3.53;;
43146;SDS011;28752;48.266;7.402;2023-06-10T13:15:01;4.50;;;3.00;;
43146;SDS011;28752;48.266;7.402;2023-06-10T13:17:27;5.05;;;3.15;;
43146;SDS011;28752;48.266;7.402;2023-06-10T13:19:52;5.80;;;3.10;;
43146;SDS011;28752;48.266;7.402;2023-06-10T13:22:18;4.20;;;2.78;;
43146;SDS011;28752;48.266;7.402;2023-06-10T13:24:45;5.45;;;3.30;;
43146;SDS011;28752;48.266;7.402;2023-06-10T13:27:12;4.82;;;3.22;;
43146;SDS011;28752;48.266;7.402;2023-06-10T13:29:39;6.15;;;3.58;;
43146;SDS011;28752;48.266;7.402;2023-06-10T13:32:05;4.80;;;3.28;;
43146;SDS011;28752;48.266;7.402;2023-06-10T13:34:31;5.30;;;3.13;;
43146;SDS011;28752;48.266;7.402;2023-06-10T13:36:56;5.75;;;3.15;;
43146;SDS011;28752;48.266;7.402;2023-06-10T13:39:22;6.57;;;3.08;;
43146;SDS011;28752;48.266;7.402;2023-06-10T13:41:47;4.95;;;3.10;;
43146;SDS011;28752;48.266;7.402;2023-06-10T13:44:13;5.10;;;3.00;;
43146;SDS011;28752;48.266;7.402;2023-06-10T13:46:38;5.03;;;3.08;;
43146;SDS011;28752;48.266;7.402;2023-06-10T13:49:03;4.60;;;2.90;;
43146;SDS011;28752;48.266;7.402;2023-06-10T13:51:29;4.93;;;3.17;;
43146;SDS011;28752;48.266;7.402;2023-06-10T13:53:54;4.28;;;2.70;;
43146;SDS011;28752;48.266;7.402;2023-06-10T13:56:20;5.72;;;3.08;;
43146;SDS011;28752;48.266;7.402;2023-06-10T13:58:45;4.78;;;2.63;;
43146;SDS011;28752;48.266;7.402;2023-06-10T14:01:10;4.45;;;2.55;;
43146;SDS011;28752;48.266;7.402;2023-06-10T14:03:36;4.20;;;2.60;;
43146;SDS011;28752;48.266;7.402;2023-06-10T14:06:01;4.97;;;2.90;;
43146;SDS011;28752;48.266;7.402;2023-06-10T14:08:27;4.25;;;2.55;;
43146;SDS011;28752;48.266;7.402;2023-06-10T14:10:53;4.18;;;2.30;;
43146;SDS011;28752;48.266;7.402;2023-06-10T14:13:18;4.22;;;2.60;;
43146;SDS011;28752;48.266;7.402;2023-06-10T14:15:44;4.88;;;3.03;;
43146;SDS011;28752;48.266;7.402;2023-06-10T14:18:09;4.65;;;2.70;;
43146;SDS011;28752;48.266;7.402;2023-06-10T14:20:35;4.75;;;3.03;;
43146;SDS011;28752;48.266;7.402;2023-06-10T14:23:01;4.82;;;2.88;;
43146;SDS011;28752;48.266;7.402;2023-06-10T14:25:26;5.65;;;3.08;;
43146;SDS011;28752;48.266;7.402;2023-06-10T14:27:52;5.35;;;3.40;;
43146;SDS011;28752;48.266;7.402;2023-06-10T14:30:17;4.68;;;2.80;;
43146;SDS011;28752;48.266;7.402;2023-06-10T14:32:42;4.20;;;2.90;;
43146;SDS011;28752;48.266;7.402;2023-06-10T14:35:08;5.55;;;3.00;;
43146;SDS011;28752;48.266;7.402;2023-06-10T14:37:34;4.30;;;2.67;;
43146;SDS011;28752;48.266;7.402;2023-06-10T14:40:00;5.03;;;3.00;;
43146;SDS011;28752;48.266;7.402;2023-06-10T14:42:25;4.50;;;2.95;;
43146;SDS011;28752;48.266;7.402;2023-06-10T14:44:50;4.65;;;2.78;;
43146;SDS011;28752;48.266;7.402;2023-06-10T14:47:16;4.57;;;2.80;;
43146;SDS011;28752;48.266;7.402;2023-06-10T14:49:41;4.55;;;2.78;;
43146;SDS011;28752;48.266;7.402;2023-06-10T14:52:07;4.25;;;2.47;;
43146;SDS011;28752;48.266;7.402;2023-06-10T14:54:33;5.30;;;3.13;;
43146;SDS011;28752;48.266;7.402;2023-06-10T14:57:00;4.78;;;2.97;;
43146;SDS011;28752;48.266;7.402;2023-06-10T14:59:26;4.30;;;2.80;;
43146;SDS011;28752;48.266;7.402;2023-06-10T15:01:51;4.85;;;2.90;;
43146;SDS011;28752;48.266;7.402;2023-06-10T15:04:16;4.63;;;2.90;;
43146;SDS011;28752;48.266;7.402;2023-06-10T15:06:42;5.15;;;2.72;;
43146;SDS011;28752;48.266;7.402;2023-06-10T15:09:08;5.03;;;3.08;;
43146;SDS011;28752;48.266;7.402;2023-06-10T15:11:33;5.15;;;2.88;;
43146;SDS011;28752;48.266;7.402;2023-06-10T15:13:59;4.72;;;2.60;;
43146;SDS011;28752;48.266;7.402;2023-06-10T15:16:24;4.47;;;2.80;;
43146;SDS011;28752;48.266;7.402;2023-06-10T15:18:50;4.25;;;2.55;;
43146;SDS011;28752;48.266;7.402;2023-06-10T15:21:15;5.53;;;3.17;;
43146;SDS011;28752;48.266;7.402;2023-06-10T15:23:40;4.53;;;2.80;;
43146;SDS011;28752;48.266;7.402;2023-06-10T15:26:06;5.00;;;2.58;;
43146;SDS011;28752;48.266;7.402;2023-06-10T15:28:31;4.22;;;2.47;;
43146;SDS011;28752;48.266;7.402;2023-06-10T15:30:56;4.38;;;2.53;;
43146;SDS011;28752;48.266;7.402;2023-06-10T15:33:22;3.95;;;2.47;;
43146;SDS011;28752;48.266;7.402;2023-06-10T15:35:47;4.72;;;2.60;;
43146;SDS011;28752;48.266;7.402;2023-06-10T15:38:12;4.85;;;2.90;;
43146;SDS011;28752;48.266;7.402;2023-06-10T15:40:38;4.10;;;2.70;;
43146;SDS011;28752;48.266;7.402;2023-06-10T15:43:06;4.78;;;3.03;;
43146;SDS011;28752;48.266;7.402;2023-06-10T15:45:31;5.35;;;3.13;;
43146;SDS011;28752;48.266;7.402;2023-06-10T15:47:57;5.25;;;2.90;;
43146;SDS011;28752;48.266;7.402;2023-06-10T15:50:22;6.05;;;3.05;;
43146;SDS011;28752;48.266;7.402;2023-06-10T15:52:47;5.03;;;3.00;;
43146;SDS011;28752;48.266;7.402;2023-06-10T15:55:13;5.00;;;3.10;;
43146;SDS011;28752;48.266;7.402;2023-06-10T15:57:38;4.60;;;2.72;;
43146;SDS011;28752;48.266;7.402;2023-06-10T16:00:04;5.80;;;3.00;;